Time;durP1;ratioP1;P1;durP2;ratioP2;P2;SDS_P1;SDS_P2;PMS_P1;PMS_P2;Temp;Humidity;BMP_temperature;BMP_pressure;BME280_temperature;BME280_humidity;BME280_pressure;Samples;Min_cycle;Max_cycle;Signal;HPM_P1;HPM_P2
2023/04/29 00:01:41;;;;;;;4.00;2.00;;;;;;;14.75;84.47;98836.53;7463974;38;20256;31
2023/04/29 00:07:14;;;;;;;4.93;2.00;;;;;;;14.80;84.35;98834.91;7412846;39;20242;31
2023/04/29 00:12:50;;;;;;;1.90;1.70;;;;;;;14.80;83.74;98832.19;7417214;39;20271;31
2023/04/29 00:18:20;;;;;;;3.23;1.90;;;;;;;14.84;84.69;98829.91;7397228;39;20243;31
2023/04/29 00:23:52;;;;;;;2.37;2.00;;;;;;;14.88;83.68;98829.31;7415942;39;20242;31
2023/04/29 00:29:28;;;;;;;3.30;2.37;;;;;;;14.83;83.80;98836.41;7422153;39;20249;31
2023/04/29 00:35:03;;;;;;;4.03;1.93;;;;;;;14.77;84.36;98823.62;7513006;38;21362;31
2023/04/29 00:40:21;;;;;;;2.07;1.80;;;;;;;14.73;84.77;98835.94;7464126;39;20267;31
2023/04/29 00:50:58;;;;;;;2.65;2.20;;;;;;;14.70;84.79;98842.56;7417609;39;21347;31
2023/04/29 00:56:32;;;;;;;2.75;2.20;;;;;;;14.72;84.45;98845.09;7437578;39;20284;31
2023/04/29 01:07:12;;;;;;;2.73;2.00;;;;;;;14.70;84.57;98841.78;7513020;38;20728;31
2023/04/29 01:17:52;;;;;;;3.55;2.10;;;;;;;14.70;84.66;98848.00;7396816;39;21144;31
2023/04/29 01:23:24;;;;;;;2.73;1.90;;;;;;;14.70;84.40;98839.06;7331506;39;20468;31
2023/04/29 01:34:20;;;;;;;2.60;2.10;;;;;;;14.62;85.04;98859.03;7382746;39;21601;31
2023/04/29 01:44:55;;;;;;;3.90;2.10;;;;;;;14.61;85.10;98851.91;7487906;38;21290;31
2023/04/29 01:50:31;;;;;;;2.87;2.07;;;;;;;14.61;84.78;98851.09;7485229;39;21846;31
2023/04/29 01:56:03;;;;;;;5.07;2.13;;;;;;;14.60;84.57;98855.69;7416431;39;20315;31
2023/04/29 02:06:41;;;;;;;2.30;2.00;;;;;;;14.46;84.47;98863.94;7418097;39;20727;31
2023/04/29 02:12:15;;;;;;;2.47;2.10;;;;;;;14.43;84.15;98860.63;7395026;39;20255;31
2023/04/29 02:17:46;;;;;;;3.95;1.95;;;;;;;14.36;84.22;98872.44;7397472;39;20255;31
2023/04/29 02:28:22;;;;;;;3.00;1.95;;;;;;;14.26;84.51;98875.47;7368469;39;21126;31
2023/04/29 02:33:41;;;;;;;2.40;2.10;;;;;;;14.22;85.35;98882.31;7438647;39;20242;31
2023/04/29 02:44:16;;;;;;;4.63;2.00;;;;;;;14.18;84.34;98893.75;7461341;39;21460;31
2023/04/29 02:54:37;;;;;;;3.65;1.98;;;;;;;14.09;84.20;98889.50;7456882;38;20339;31
2023/04/29 03:00:13;;;;;;;2.60;2.00;;;;;;;13.91;83.62;98903.53;7441573;39;20252;31
2023/04/29 03:05:34;;;;;;;2.97;2.25;;;;;;;13.82;84.12;98916.38;7442509;39;20496;31
2023/04/29 03:10:54;;;;;;;2.10;1.70;;;;;;;13.71;83.55;98913.34;7440452;39;20256;31
2023/04/29 03:16:28;;;;;;;2.03;1.77;;;;;;;13.60;83.41;98922.00;7376082;39;20361;31
2023/04/29 03:21:44;;;;;;;2.53;1.90;;;;;;;13.59;83.80;98926.59;7420376;39;20247;31
2023/04/29 03:27:20;;;;;;;2.78;1.70;;;;;;;13.58;83.95;98924.91;7357193;39;20255;31
2023/04/29 03:32:53;;;;;;;2.70;1.70;;;;;;;13.62;83.67;98930.75;7362436;39;20321;31
2023/04/29 03:38:10;;;;;;;1.80;1.67;;;;;;;13.59;83.37;98928.44;7359282;39;20240;31
2023/04/29 03:43:43;;;;;;;2.30;1.90;;;;;;;13.54;83.36;98920.91;7377490;39;20256;31
2023/04/29 03:49:17;;;;;;;3.00;1.80;;;;;;;13.39;83.48;98929.06;7438132;39;20305;31
2023/04/29 03:54:49;;;;;;;6.00;2.10;;;;;;;13.36;84.17;98926.75;7399639;39;20243;31
2023/04/29 04:00:25;;;;;;;2.93;2.10;;;;;;;13.33;84.17;98924.44;7376539;39;20314;31
2023/04/29 04:05:56;;;;;;;2.97;2.03;;;;;;;13.26;83.89;98936.19;7398427;39;20291;31
2023/04/29 04:11:31;;;;;;;3.10;1.90;;;;;;;13.12;84.05;98924.34;7418209;39;20333;31
2023/04/29 04:16:51;;;;;;;1.80;1.70;;;;;;;13.16;84.37;98931.09;7421281;39;20235;31
2023/04/29 04:22:24;;;;;;;2.20;2.00;;;;;;;13.12;83.93;98928.97;7427042;39;20362;31
2023/04/29 04:27:44;;;;;;;2.40;1.90;;;;;;;13.05;84.02;98939.66;7480432;38;20241;31
2023/04/29 04:33:04;;;;;;;3.35;1.90;;;;;;;12.89;84.61;98950.69;7421752;39;20299;31
2023/04/29 04:38:41;;;;;;;5.20;2.20;;;;;;;12.72;85.16;98958.16;7359149;39;20347;31
2023/04/29 04:44:13;;;;;;;4.00;2.50;;;;;;;12.71;85.13;98970.00;7377860;39;20463;31
2023/04/29 04:49:30;;;;;;;3.30;2.33;;;;;;;12.64;85.42;98972.56;7334655;39;20325;31
2023/04/29 04:55:03;;;;;;;2.93;2.50;;;;;;;12.63;85.83;98984.44;7387314;39;21224;31
2023/04/29 05:00:38;;;;;;;3.13;2.73;;;;;;;12.60;86.21;98982.09;7365984;39;20243;31
2023/04/29 05:06:10;;;;;;;4.33;2.60;;;;;;;12.53;86.59;99004.66;7233427;39;20257;31
2023/04/29 05:11:46;;;;;;;2.73;2.47;;;;;;;12.46;86.60;98999.12;7397705;39;20405;31
2023/04/29 05:17:03;;;;;;;4.03;2.60;;;;;;;12.49;86.69;99004.19;7395078;39;20301;31
2023/04/29 05:22:23;;;;;;;3.20;2.90;;;;;;;12.55;85.81;98998.00;7483063;39;20260;31
2023/04/29 05:27:56;;;;;;;4.83;2.90;;;;;;;12.51;85.72;98999.41;7405140;39;20321;31
2023/04/29 05:33:13;;;;;;;2.90;2.60;;;;;;;12.62;86.04;99003.53;7417309;39;20286;31
2023/04/29 05:38:33;;;;;;;3.75;2.60;;;;;;;12.82;85.65;99015.50;7421953;39;20237;31
2023/04/29 05:44:09;;;;;;;3.12;2.60;;;;;;;12.98;85.08;99015.34;7468354;38;20406;31
2023/04/29 05:49:26;;;;;;;4.13;2.60;;;;;;;13.11;84.49;99020.13;7510438;38;22193;31
2023/04/29 05:54:43;;;;;;;3.77;2.67;;;;;;;13.21;84.61;99028.78;7439781;39;20262;31
2023/04/29 06:00:20;;;;;;;3.20;2.80;;;;;;;13.28;83.61;99035.13;7424033;39;20250;31
2023/04/29 06:05:55;;;;;;;3.00;2.50;;;;;;;13.44;83.69;99042.19;7398781;39;20238;31
2023/04/29 06:11:16;;;;;;;4.40;2.27;;;;;;;13.58;82.77;99048.63;7441118;39;21104;31
2023/04/29 06:16:45;;;;;;;3.37;2.73;;;;;;;13.69;82.70;99046.25;7485899;39;20253;31
2023/04/29 06:22:17;;;;;;;3.00;2.70;;;;;;;13.79;82.18;99046.81;7509222;38;21950;31
2023/04/29 06:27:34;;;;;;;2.43;2.23;;;;;;;14.00;82.47;99049.53;7419691;39;20261;31
2023/04/29 06:33:12;;;;;;;3.43;2.40;;;;;;;14.08;80.93;99062.16;7420902;39;20238;31
2023/04/29 06:38:43;;;;;;;3.23;2.70;;;;;;;14.21;80.64;99064.16;7356204;39;20243;31
2023/04/29 06:44:18;;;;;;;5.10;2.63;;;;;;;14.36;80.04;99073.94;7274608;39;20303;31
2023/04/29 06:49:52;;;;;;;4.70;3.13;;;;;;;14.47;79.12;99080.72;7286066;39;20258;31
2023/04/29 06:55:10;;;;;;;6.40;2.70;;;;;;;14.64;78.76;99082.12;7341252;39;20413;31
2023/04/29 07:00:26;;;;;;;4.37;2.67;;;;;;;14.73;77.33;99083.66;7399722;39;20246;31
2023/04/29 07:05:59;;;;;;;4.13;3.47;;;;;;;14.93;76.98;99094.66;7419161;39;20248;31
2023/04/29 07:16:25;;;;;;;3.43;2.60;;;;;;;15.16;75.39;99108.00;7396267;39;20279;31
2023/04/29 07:22:00;;;;;;;3.83;2.63;;;;;;;15.27;75.58;99118.28;7404420;39;20245;31
2023/04/29 07:27:18;;;;;;;5.87;2.43;;;;;;;15.52;75.83;99126.88;7374753;39;20314;31
2023/04/29 07:32:38;;;;;;;4.00;3.30;;;;;;;15.64;74.51;99122.53;7426268;39;20245;31
2023/04/29 07:38:13;;;;;;;3.80;3.13;;;;;;;15.85;73.32;99137.91;7440009;39;20427;31
2023/04/29 07:43:45;;;;;;;4.87;3.77;;;;;;;15.82;73.22;99139.16;7416768;39;20334;31
2023/04/29 07:49:04;;;;;;;4.57;3.27;;;;;;;15.90;72.57;99144.41;7439015;39;20340;31
2023/04/29 07:54:36;;;;;;;4.67;4.17;;;;;;;16.06;67.78;99138.63;7438395;39;20238;31
2023/04/29 08:00:09;;;;;;;6.70;4.20;;;;;;;16.31;69.14;99138.09;7421965;39;20253;31
2023/04/29 08:05:29;;;;;;;4.00;3.60;;;;;;;16.59;69.35;99144.25;7438446;39;20355;31
2023/04/29 08:16:08;;;;;;;4.70;3.80;;;;;;;16.21;67.84;99142.03;7420346;39;21011;31
2023/04/29 08:21:38;;;;;;;5.07;3.70;;;;;;;16.49;67.95;99158.25;7417771;39;20250;31
2023/04/29 08:27:11;;;;;;;5.97;4.20;;;;;;;16.47;64.91;99165.75;7417140;39;20240;31
2023/04/29 08:32:40;;;;;;;4.60;4.07;;;;;;;16.20;66.09;99161.25;7376806;39;20255;31
2023/04/29 08:38:12;;;;;;;4.60;4.10;;;;;;;16.20;68.10;99180.31;7393287;39;20305;31
2023/04/29 08:43:44;;;;;;;5.97;4.10;;;;;;;16.11;67.41;99179.63;7315167;39;20242;31
2023/04/29 08:49:18;;;;;;;4.60;4.00;;;;;;;15.97;65.28;99180.59;7344102;39;20335;31
2023/04/29 08:54:36;;;;;;;3.90;3.50;;;;;;;16.03;67.25;99190.69;7356793;39;20244;31
2023/04/29 09:00:07;;;;;;;3.37;3.07;;;;;;;16.05;69.34;99194.06;7322522;39;20322;31
2023/04/29 09:05:40;;;;;;;4.40;2.77;;;;;;;16.16;69.89;99189.91;7389440;39;20246;31
2023/04/29 09:11:10;;;;;;;3.73;2.97;;;;;;;16.12;70.63;99202.22;7418052;39;20250;31
2023/04/29 09:16:42;;;;;;;3.83;3.40;;;;;;;16.07;68.73;99202.00;7438407;39;20269;31
2023/04/29 09:27:18;;;;;;;10.70;6.90;;;;;;;15.95;73.67;99222.66;7490910;38;20314;31
2023/04/29 09:32:38;;;;;;;9.55;8.55;;;;;;;15.82;72.85;99217.13;7419442;39;20273;31
2023/04/29 09:38:13;;;;;;;9.50;8.03;;;;;;;15.65;74.17;99235.62;7421205;39;20332;31
2023/04/29 09:43:46;;;;;;;9.40;8.37;;;;;;;15.62;72.75;99236.03;7375391;39;20251;31
2023/04/29 09:49:18;;;;;;;11.47;8.47;;;;;;;15.47;73.71;99243.41;7404727;39;20332;31
2023/04/29 09:54:50;;;;;;;10.87;9.13;;;;;;;15.40;73.40;99239.78;7402110;39;20259;31
2023/04/29 10:00:24;;;;;;;11.20;9.03;;;;;;;15.40;74.00;99239.78;7420907;39;20268;31
2023/04/29 10:05:56;;;;;;;9.65;8.20;;;;;;;15.41;73.40;99245.00;7440463;39;20242;31
2023/04/29 10:11:28;;;;;;;10.13;8.60;;;;;;;15.34;73.07;99247.69;7419701;39;20328;31
2023/04/29 10:16:59;;;;;;;10.77;7.80;;;;;;;15.40;74.13;99243.31;7376692;39;20309;31
2023/04/29 10:22:31;;;;;;;7.95;6.78;;;;;;;15.34;71.91;99246.84;7334338;39;20255;31
2023/04/29 10:33:11;;;;;;;9.73;6.40;;;;;;;15.38;71.75;99234.56;7319753;39;20556;31
2023/04/29 10:38:43;;;;;;;6.90;5.62;;;;;;;15.38;71.80;99233.69;7332821;39;20252;31
2023/04/29 10:44:03;;;;;;;7.13;5.47;;;;;;;15.54;71.79;99237.00;7385720;39;20238;31
2023/04/29 10:49:36;;;;;;;7.40;5.20;;;;;;;15.70;71.92;99235.88;7479672;38;20241;31
2023/04/29 10:55:31;;;;;;;6.73;5.40;;;;;;;15.77;70.51;99231.31;7421912;39;21663;31
2023/04/29 11:06:08;;;;;;;8.80;6.10;;;;;;;15.83;71.40;99233.25;7397948;39;21180;31
2023/04/29 11:11:40;;;;;;;6.90;5.40;;;;;;;15.84;71.30;99229.47;7428092;39;21152;31
2023/04/29 11:17:12;;;;;;;7.75;5.85;;;;;;;15.96;69.61;99221.63;7458957;39;20287;31
2023/04/29 11:22:45;;;;;;;7.13;5.50;;;;;;;15.96;70.66;99218.88;7441435;39;21275;31
2023/04/29 11:28:17;;;;;;;7.10;5.40;;;;;;;15.92;70.52;99234.78;7399831;39;20258;31
2023/04/29 11:33:34;;;;;;;5.30;4.80;;;;;;;16.01;70.99;99236.28;7430443;39;20333;31
2023/04/29 11:39:10;;;;;;;6.18;4.75;;;;;;;15.88;68.44;99241.66;7232622;39;20318;31
2023/04/29 11:44:27;;;;;;;5.33;4.50;;;;;;;15.92;71.02;99231.22;7457856;39;20278;31
2023/04/29 11:55:05;;;;;;;7.37;5.63;;;;;;;15.88;69.31;99240.81;7459691;39;21131;31
2023/04/29 12:00:37;;;;;;;4.70;4.00;;;;;;;15.81;69.01;99240.75;7397500;39;20295;31
2023/04/29 12:06:09;;;;;;;5.57;4.10;;;;;;;15.67;69.23;99244.41;7344315;39;20344;31
2023/04/29 12:11:40;;;;;;;6.17;4.17;;;;;;;15.64;67.98;99250.25;7374261;39;20263;31
2023/04/29 12:22:17;;;;;;;4.45;3.80;;;;;;;15.53;67.97;99248.09;7412271;39;20266;31
2023/04/29 12:32:57;;;;;;;5.45;3.40;;;;;;;15.61;68.68;99261.53;7485437;39;20263;31
2023/04/29 12:38:30;;;;;;;4.00;3.30;;;;;;;15.47;67.28;99257.81;7418611;39;20357;31
2023/04/29 12:44:03;;;;;;;5.35;3.30;;;;;;;15.44;68.08;99254.66;7399401;39;20271;31
2023/04/29 12:54:42;;;;;;;3.30;3.00;;;;;;;15.57;65.69;99266.50;7364842;39;20993;31
2023/04/29 12:59:57;;;;;;;3.90;3.00;;;;;;;15.60;67.65;99265.25;7391017;39;20396;31
2023/04/29 13:05:29;;;;;;;4.00;3.20;;;;;;;15.68;67.76;99275.97;7410343;39;20283;31
2023/04/29 13:16:10;;;;;;;3.95;2.65;;;;;;;15.75;68.32;99285.03;7431448;39;20270;31
2023/04/29 13:21:41;;;;;;;6.83;5.30;;;;;;;15.69;68.07;99286.66;7458703;39;20250;31
2023/04/29 13:27:02;;;;;;;5.73;4.80;;;;;;;15.63;67.88;99286.59;7438851;39;22206;31
2023/04/29 13:37:40;;;;;;;6.03;5.10;;;;;;;15.34;68.11;99283.00;7418874;39;21281;31
2023/04/29 13:42:58;;;;;;;5.57;5.07;;;;;;;15.44;69.67;99288.09;7430008;39;21232;31
2023/04/29 13:48:26;;;;;;;7.53;5.50;;;;;;;15.42;69.31;99286.59;7479720;39;20435;31
2023/04/29 13:59:03;;;;;;;5.93;5.00;;;;;;;15.45;68.71;99292.47;7440452;39;20345;31
2023/04/29 14:09:25;;;;;;;5.40;4.60;;;;;;;15.47;69.83;99303.16;7391701;39;21251;31
2023/04/29 14:14:57;;;;;;;5.50;4.30;;;;;;;15.43;69.74;99305.44;7463497;39;20267;31
2023/04/29 14:25:22;;;;;;;5.70;4.50;;;;;;;15.42;69.98;99316.47;7490893;38;20270;31
2023/04/29 14:36:00;;;;;;;8.10;5.00;;;;;;;15.50;69.11;99322.66;7513179;38;20269;31
2023/04/29 14:46:36;;;;;;;4.50;4.10;;;;;;;15.39;68.01;99333.19;7490779;38;20250;31
2023/04/29 14:52:09;;;;;;;4.63;4.10;;;;;;;15.07;66.08;99337.22;7481280;38;20255;31
2023/04/29 14:57:45;;;;;;;4.80;4.10;;;;;;;14.65;67.63;99346.97;7483325;39;20348;31
2023/04/29 15:03:16;;;;;;;4.70;4.13;;;;;;;14.61;69.05;99339.38;7438019;39;20243;31
2023/04/29 15:08:49;;;;;;;5.77;4.37;;;;;;;14.64;68.63;99328.16;7394940;39;20259;31
2023/04/29 15:14:07;;;;;;;4.70;3.77;;;;;;;14.64;67.91;99339.84;7394117;39;20358;31
2023/04/29 15:19:39;;;;;;;3.50;3.20;;;;;;;14.70;67.47;99340.97;7376487;39;20314;31
2023/04/29 15:25:12;;;;;;;4.25;3.20;;;;;;;14.74;67.65;99340.38;7403032;39;20624;31
2023/04/29 15:30:29;;;;;;;4.67;3.23;;;;;;;14.84;68.08;99337.37;7395175;39;21739;31
2023/04/29 15:35:46;;;;;;;4.05;3.15;;;;;;;14.98;68.15;99349.22;7373415;39;20286;31
2023/04/29 15:41:17;;;;;;;3.10;2.70;;;;;;;14.97;67.44;99351.09;7395472;39;20270;31
2023/04/29 15:51:56;;;;;;;3.27;2.97;;;;;;;14.80;67.44;99363.19;7478036;38;20277;31
2023/04/29 15:57:29;;;;;;;3.33;2.83;;;;;;;14.82;67.72;99362.00;7465132;39;20801;31
2023/04/29 16:02:49;;;;;;;4.43;2.90;;;;;;;15.06;66.42;99352.66;7420513;39;21305;31
2023/04/29 16:08:21;;;;;;;3.20;2.90;;;;;;;15.10;64.26;99350.41;7400409;39;20263;31
2023/04/29 16:13:54;;;;;;;3.57;2.80;;;;;;;15.40;63.52;99351.16;7375463;39;20371;31
2023/04/29 16:19:26;;;;;;;3.20;2.90;;;;;;;15.51;65.53;99354.22;7393135;39;20238;31
2023/04/29 16:24:46;;;;;;;3.20;2.70;;;;;;;15.60;64.99;99341.34;7402878;39;20243;31
2023/04/29 16:30:17;;;;;;;2.80;2.45;;;;;;;15.56;65.29;99346.34;7390031;39;20261;31
2023/04/29 16:35:34;;;;;;;2.30;2.00;;;;;;;15.31;64.06;99359.41;7419525;39;20371;31
2023/04/29 16:41:09;;;;;;;3.13;2.50;;;;;;;15.36;65.89;99355.31;7423360;39;20448;31
2023/04/29 16:46:43;;;;;;;4.77;2.50;;;;;;;15.51;65.34;99353.37;7438030;39;21344;31
2023/04/29 16:57:25;;;;;;;3.00;2.63;;;;;;;15.50;64.87;99359.81;7417317;39;20273;31
2023/04/29 17:02:57;;;;;;;4.23;2.80;;;;;;;15.41;65.78;99360.97;7357201;39;20251;31
2023/04/29 17:08:13;;;;;;;3.75;2.92;;;;;;;15.37;65.47;99376.81;7336110;39;20271;31
2023/04/29 17:18:50;;;;;;;4.43;2.90;;;;;;;15.47;65.31;99362.91;7378006;39;20281;31
2023/04/29 17:29:11;;;;;;;3.40;3.10;;;;;;;15.36;65.20;99366.97;7479292;38;21220;31
2023/04/29 17:34:43;;;;;;;4.13;3.20;;;;;;;15.27;66.48;99371.69;7441594;39;20335;31
2023/04/29 17:40:15;;;;;;;3.67;2.80;;;;;;;15.26;65.70;99374.63;7417316;39;20253;31
2023/04/29 17:45:51;;;;;;;3.47;3.10;;;;;;;15.21;66.32;99383.34;7393409;39;20275;31
2023/04/29 17:56:33;;;;;;;3.50;3.17;;;;;;;15.19;67.36;99388.09;7417856;39;20267;31
2023/04/29 18:01:48;;;;;;;3.87;3.47;;;;;;;15.22;67.97;99386.91;7430307;39;20346;31
2023/04/29 18:12:26;;;;;;;4.05;3.60;;;;;;;15.19;67.00;99388.09;7481186;39;21165;31
2023/04/29 18:23:06;;;;;;;4.57;3.30;;;;;;;15.08;67.45;99399.47;7510703;38;20273;31
2023/04/29 18:28:38;;;;;;;4.63;3.50;;;;;;;15.03;68.41;99401.91;7439874;39;20346;31
2023/04/29 18:34:10;;;;;;;5.27;4.07;;;;;;;14.99;67.92;99400.63;7334994;39;20272;31
2023/04/29 18:39:42;;;;;;;4.27;3.87;;;;;;;14.95;68.50;99412.88;7358139;39;20279;31
2023/04/29 18:50:20;;;;;;;3.85;3.50;;;;;;;14.86;69.56;99414.87;7443950;39;21194;31
2023/04/29 19:00:42;;;;;;;3.85;3.20;;;;;;;14.79;69.97;99410.34;7508382;38;20701;31
2023/04/29 19:06:16;;;;;;;4.40;3.80;;;;;;;14.72;69.96;99420.28;7440843;39;20428;31
2023/04/29 19:16:38;;;;;;;4.70;3.85;;;;;;;14.67;70.89;99447.13;7442129;39;20402;31
2023/04/29 19:27:17;;;;;;;4.50;4.10;;;;;;;14.42;70.23;99454.72;7491402;39;20253;31
2023/04/29 19:37:43;;;;;;;6.13;5.50;;;;;;;14.25;70.58;99458.56;7512764;38;20277;31
2023/04/29 19:48:22;;;;;;;6.00;5.40;;;;;;;14.10;70.50;99458.53;7513014;38;20265;31
2023/04/29 19:54:00;;;;;;;7.20;5.60;;;;;;;13.97;70.84;99458.28;7269955;39;20220;31
2023/04/29 19:59:15;;;;;;;6.03;5.00;;;;;;;13.92;71.36;99450.72;7489820;38;20336;31
2023/04/29 20:04:48;;;;;;;5.50;4.90;;;;;;;13.92;70.85;99448.00;7442180;39;20256;31
2023/04/29 20:10:17;;;;;;;5.25;4.20;;;;;;;13.89;70.53;99467.34;7443154;39;20228;31
2023/04/29 20:15:49;;;;;;;4.80;4.30;;;;;;;13.82;70.55;99466.38;7378335;39;20387;31
2023/04/29 20:21:26;;;;;;;6.20;4.70;;;;;;;13.72;70.63;99473.06;7388486;39;21163;31
2023/04/29 20:31:47;;;;;;;6.85;5.05;;;;;;;13.74;70.70;99488.09;7315709;39;20272;31
2023/04/29 20:42:24;;;;;;;7.77;6.33;;;;;;;13.63;70.80;99474.13;7406318;39;21158;31
2023/04/29 20:52:47;;;;;;;10.37;6.40;;;;;;;13.56;71.14;99486.72;7425196;39;21226;31
2023/04/29 20:58:22;;;;;;;6.60;6.00;;;;;;;13.50;70.33;99489.13;7400503;39;20284;31
2023/04/29 21:03:57;;;;;;;7.70;5.95;;;;;;;13.53;70.65;99496.03;7444185;39;20304;31
2023/04/29 21:09:34;;;;;;;8.15;6.60;;;;;;;13.50;70.18;99499.94;7402635;39;20420;31
2023/04/29 21:15:05;;;;;;;7.00;6.27;;;;;;;13.46;70.51;99500.47;7358882;39;20342;31
2023/04/29 21:20:23;;;;;;;7.23;6.43;;;;;;;13.45;71.16;99490.66;7354960;39;20292;31
2023/04/29 21:25:58;;;;;;;9.50;6.60;;;;;;;13.39;71.23;99496.78;7306906;39;20239;31
2023/04/29 21:31:31;;;;;;;9.80;6.60;;;;;;;13.35;71.19;99501.72;7334816;39;20410;31
2023/04/29 21:37:03;;;;;;;8.43;6.43;;;;;;;13.40;70.94;99509.28;7359941;39;20255;31
2023/04/29 21:42:36;;;;;;;8.07;6.53;;;;;;;13.33;71.20;99517.31;7382915;39;20313;31
2023/04/29 21:48:08;;;;;;;9.70;7.50;;;;;;;13.36;72.01;99516.09;7387756;39;20247;31
2023/04/29 21:53:23;;;;;;;8.10;7.30;;;;;;;13.36;71.49;99526.91;7416659;39;20245;31
2023/04/29 21:58:59;;;;;;;11.20;7.55;;;;;;;13.30;71.71;99528.47;7418617;39;21112;31
2023/04/29 22:04:27;;;;;;;9.63;7.63;;;;;;;13.26;71.86;99527.13;7359819;39;20351;31
2023/04/29 22:09:48;;;;;;;10.80;7.53;;;;;;;13.23;71.98;99519.38;7382419;39;20244;31
2023/04/29 22:15:06;;;;;;;8.90;7.40;;;;;;;13.20;72.44;99521.59;7354302;39;21106;31
2023/04/29 22:20:40;;;;;;;10.67;7.93;;;;;;;13.19;72.04;99520.75;7366710;39;20337;31
2023/04/29 22:25:57;;;;;;;9.70;7.20;;;;;;;13.19;71.76;99523.44;7357083;39;20235;31
2023/04/29 22:31:17;;;;;;;10.33;7.87;;;;;;;13.15;72.13;99522.09;7422037;39;20294;31
2023/04/29 22:36:53;;;;;;;9.97;8.37;;;;;;;13.17;72.69;99522.75;7428168;38;20248;31
2023/04/29 22:42:10;;;;;;;10.10;8.00;;;;;;;13.18;72.69;99520.91;7462861;39;20389;31
2023/04/29 22:52:49;;;;;;;9.67;8.60;;;;;;;13.11;72.42;99525.34;7403295;39;20346;31
2023/04/29 22:58:06;;;;;;;10.50;7.87;;;;;;;13.09;72.78;99520.06;7384460;39;20309;31
2023/04/29 23:03:38;;;;;;;8.53;7.63;;;;;;;13.08;72.65;99523.78;7422380;39;20381;31
2023/04/29 23:09:09;;;;;;;10.63;8.13;;;;;;;13.05;72.56;99524.12;7419457;39;21238;31
2023/04/29 23:14:26;;;;;;;10.03;8.47;;;;;;;13.05;72.57;99521.44;7371275;39;20327;31
2023/04/29 23:19:58;;;;;;;9.30;8.20;;;;;;;13.02;72.49;99524.50;7424202;39;21130;31
2023/04/29 23:25:31;;;;;;;10.50;8.07;;;;;;;13.00;71.91;99527.38;7398252;39;20385;31
2023/04/29 23:31:03;;;;;;;8.93;7.63;;;;;;;12.94;72.10;99524.53;7371873;39;20320;31
2023/04/29 23:36:21;;;;;;;11.30;7.53;;;;;;;12.93;73.12;99530.94;7359057;39;20326;31
2023/04/29 23:41:54;;;;;;;9.03;7.47;;;;;;;13.00;72.88;99537.34;7326903;39;20236;31
2023/04/29 23:47:26;;;;;;;9.20;7.87;;;;;;;13.01;72.13;99533.63;7365787;39;20246;31
2023/04/29 23:52:58;;;;;;;9.13;7.87;;;;;;;12.98;72.47;99540.25;7392231;39;20247;31
2023/04/29 23:58:32;;;;;;;10.07;8.10;;;;;;;12.91;72.65;99546.50;7417625;39;20257;31
